Time;durP1;ratioP1;P1;durP2;ratioP2;P2;SDS_P1;SDS_P2;PMS_P1;PMS_P2;Temp;Humidity;BMP_temperature;BMP_pressure;BME280_temperature;BME280_humidity;BME280_pressure;Samples;Min_cycle;Max_cycle;Signal;HPM_P1;HPM_P2
2021/01/28 00:02:06;;;;;;;9.30;4.72;;;;;;;-2.70;66.87;92682.19;5050765;28;20504;-61
2021/01/28 00:04:32;;;;;;;8.70;5.13;;;;;;;-2.87;67.00;92688.72;5051095;28;20036;-60
2021/01/28 00:06:57;;;;;;;11.65;6.05;;;;;;;-2.93;66.75;92680.59;5050858;28;20523;-60
2021/01/28 00:09:23;;;;;;;7.75;4.80;;;;;;;-2.84;68.20;92682.34;5049779;28;20020;-58
2021/01/28 00:11:49;;;;;;;10.80;5.68;;;;;;;-2.79;67.65;92695.13;5050824;28;20266;-57
2021/01/28 00:14:15;;;;;;;14.05;5.05;;;;;;;-2.71;67.30;92698.91;5050735;28;20559;-56
2021/01/28 00:16:40;;;;;;;10.35;6.18;;;;;;;-2.63;66.70;92697.97;5050770;28;20021;-55
2021/01/28 00:19:05;;;;;;;7.35;4.88;;;;;;;-2.70;67.30;92692.25;5050854;28;20021;-52
2021/01/28 00:21:31;;;;;;;8.80;4.57;;;;;;;-2.62;66.27;92699.44;5050659;28;20024;-54
2021/01/28 00:23:56;;;;;;;10.35;5.30;;;;;;;-2.55;66.83;92698.97;5050843;28;20386;-55
2021/01/28 00:26:22;;;;;;;8.93;5.93;;;;;;;-2.50;66.07;92700.25;5050740;28;20412;-54
2021/01/28 00:28:47;;;;;;;7.60;4.88;;;;;;;-2.57;65.82;92696.03;5050364;28;20485;-60
2021/01/28 00:31:13;;;;;;;8.20;5.00;;;;;;;-2.62;65.81;92707.53;5050429;28;20457;-60
2021/01/28 00:33:38;;;;;;;9.57;4.82;;;;;;;-2.77;65.53;92690.03;5050515;28;20021;-59
2021/01/28 00:36:06;;;;;;;7.07;5.05;;;;;;;-2.66;65.53;92708.97;5050387;28;20017;-61
2021/01/28 00:38:36;;;;;;;9.27;5.40;;;;;;;-2.67;64.96;92707.50;5050679;28;20077;-61
2021/01/28 00:41:05;;;;;;;8.13;4.93;;;;;;;-2.79;64.81;92705.94;5050259;28;20049;-61
2021/01/28 00:43:31;;;;;;;;;;;;;;;-2.76;65.04;92700.34;5050770;28;20033;-62
2021/01/28 00:45:58;;;;;;;7.15;4.00;;;;;;;-2.82;64.70;92707.66;5050325;28;19908;-62
2021/01/28 00:48:25;;;;;;;8.20;5.13;;;;;;;-2.95;65.38;92707.34;5050347;28;20467;-60
2021/01/28 00:50:52;;;;;;;6.80;4.30;;;;;;;-2.81;65.47;92697.59;5050072;28;20538;-60
2021/01/28 00:53:18;;;;;;;9.88;4.57;;;;;;;-2.74;65.55;92706.00;5050381;28;20417;-61
2021/01/28 00:55:44;;;;;;;8.45;4.75;;;;;;;-2.93;65.61;92696.78;5050172;28;20486;-60
2021/01/28 00:58:12;;;;;;;8.55;5.00;;;;;;;-2.90;65.89;92703.19;5049622;28;20103;-52
2021/01/28 01:00:40;;;;;;;8.95;4.80;;;;;;;-2.84;66.20;92706.66;5050015;28;20021;-54
2021/01/28 01:03:06;;;;;;;8.32;5.10;;;;;;;-2.75;65.65;92695.69;5049981;28;20032;-55
2021/01/28 01:05:32;;;;;;;7.93;4.80;;;;;;;-2.82;65.33;92696.13;5050067;28;20028;-53
2021/01/28 01:07:59;;;;;;;10.20;5.10;;;;;;;-2.77;65.62;92698.84;5049935;28;20025;-56
2021/01/28 01:10:30;;;;;;;8.90;5.78;;;;;;;-2.60;66.01;92707.06;5049977;28;20023;-52
2021/01/28 01:12:56;;;;;;;8.23;5.40;;;;;;;-2.76;65.61;92686.09;5049816;28;20029;-55
2021/01/28 01:15:21;;;;;;;8.73;5.35;;;;;;;-2.68;66.16;92704.06;5048765;28;20116;-56
2021/01/28 01:17:47;;;;;;;7.90;4.53;;;;;;;-2.67;66.37;92702.84;5049906;28;20032;-58
2021/01/28 01:20:14;;;;;;;9.50;5.20;;;;;;;-2.76;66.42;92702.28;5049768;28;20501;-54
2021/01/28 01:22:41;;;;;;;9.10;4.93;;;;;;;-2.78;67.34;92681.16;5049890;28;20408;-56
2021/01/28 01:25:07;;;;;;;9.65;4.75;;;;;;;-2.67;66.47;92694.75;5049768;28;20060;-58
2021/01/28 01:27:33;;;;;;;10.38;5.70;;;;;;;-2.70;67.03;92689.56;5049952;28;20027;-58
2021/01/28 01:29:58;;;;;;;9.82;6.00;;;;;;;-2.64;66.88;92682.25;5049579;28;20279;-58
2021/01/28 01:32:24;;;;;;;15.68;5.97;;;;;;;-2.63;67.58;92687.16;5049464;28;20021;-57
2021/01/28 01:34:50;;;;;;;10.57;5.80;;;;;;;-2.57;66.88;92687.91;5049512;28;20127;-55
2021/01/28 01:37:15;;;;;;;11.52;5.85;;;;;;;-2.55;66.77;92684.72;5049559;28;20017;-53
2021/01/28 01:39:40;;;;;;;10.25;6.45;;;;;;;-2.58;67.17;92686.47;5049110;28;20406;-51
2021/01/28 01:42:06;;;;;;;12.68;5.35;;;;;;;-2.53;68.43;92676.88;5049834;28;20413;-55
2021/01/28 01:44:32;;;;;;;14.40;6.53;;;;;;;-2.50;68.39;92689.44;5049338;28;20124;-62
2021/01/28 01:47:18;;;;;;;18.45;6.95;;;;;;;-2.53;68.77;92685.72;5049185;28;20496;-62
2021/01/28 01:49:48;;;;;;;12.93;6.65;;;;;;;-2.45;68.60;92681.34;5048192;28;20025;-62
2021/01/28 01:52:13;;;;;;;19.30;9.32;;;;;;;-2.53;69.03;92682.28;5048131;28;20077;-59
2021/01/28 01:54:42;;;;;;;19.90;10.85;;;;;;;-2.50;69.48;92692.13;5049359;28;20040;-58
2021/01/28 01:57:13;;;;;;;14.90;7.78;;;;;;;-2.57;68.99;92689.88;5049257;28;20029;-59
2021/01/28 01:59:41;;;;;;;13.68;6.88;;;;;;;-2.59;69.64;92689.63;5048015;28;20029;-60
2021/01/28 02:02:12;;;;;;;12.65;6.95;;;;;;;-2.59;69.90;92693.06;5049241;28;20025;-60
2021/01/28 02:04:38;;;;;;;18.73;8.70;;;;;;;-2.51;69.46;92696.03;5047973;28;20044;-56
2021/01/28 02:07:09;;;;;;;13.43;7.35;;;;;;;-2.52;69.88;92697.28;5049093;28;20025;-58
2021/01/28 02:09:34;;;;;;;12.63;7.07;;;;;;;-2.53;69.54;92706.59;5048033;28;20020;-54
2021/01/28 02:12:00;;;;;;;17.27;7.80;;;;;;;-2.63;70.10;92695.25;5049041;28;20485;-56
2021/01/28 02:14:25;;;;;;;10.85;6.13;;;;;;;-2.51;69.92;92706.84;5048964;28;20400;-53
2021/01/28 02:16:54;;;;;;;15.80;6.82;;;;;;;-2.59;70.27;92705.84;5048838;28;20549;-58
2021/01/28 02:19:58;;;;;;;14.20;7.55;;;;;;;-2.60;70.44;92707.06;5047700;28;20060;-57
2021/01/28 02:22:26;;;;;;;15.20;7.50;;;;;;;-2.69;70.45;92710.69;5058236;28;20053;-57
2021/01/28 02:25:13;;;;;;;12.40;6.37;;;;;;;-2.57;70.29;92711.50;5048871;28;20025;-61
2021/01/28 02:27:42;;;;;;;11.75;7.18;;;;;;;-2.58;70.72;92712.72;5055388;28;20037;-60
2021/01/28 02:30:08;;;;;;;13.57;7.22;;;;;;;-2.84;70.68;92685.06;5047339;28;20029;-61
2021/01/28 02:32:34;;;;;;;14.90;7.22;;;;;;;-2.68;70.63;92709.47;5048898;28;20409;-61
2021/01/28 02:35:00;;;;;;;16.45;9.43;;;;;;;-2.55;70.72;92725.25;5048820;28;20025;-61
2021/01/28 02:37:25;;;;;;;14.70;7.10;;;;;;;-2.56;70.16;92718.41;5048377;28;20375;-60
2021/01/28 02:39:51;;;;;;;12.48;6.85;;;;;;;-2.60;70.37;92712.47;5048363;28;20124;-61
2021/01/28 02:42:23;;;;;;;15.63;8.43;;;;;;;-2.52;71.10;92716.94;5048522;28;20019;-60
2021/01/28 02:44:49;;;;;;;15.18;7.85;;;;;;;-2.59;70.74;92720.09;5047188;28;20024;-61
2021/01/28 02:47:14;;;;;;;14.73;7.82;;;;;;;-2.56;71.01;92724.53;5048196;28;20530;-59
2021/01/28 02:49:40;;;;;;;15.93;8.55;;;;;;;-2.53;70.87;92725.50;5048265;28;20025;-52
2021/01/28 02:52:06;;;;;;;16.02;7.80;;;;;;;-2.62;71.19;92723.03;5038878;28;20022;-49
2021/01/28 02:54:40;;;;;;;15.85;8.80;;;;;;;-2.75;70.95;92709.19;5028587;28;20600;-58
2021/01/28 02:57:05;;;;;;;14.27;7.88;;;;;;;-2.61;71.03;92717.13;5028472;28;20021;-58
2021/01/28 02:59:31;;;;;;;13.90;7.35;;;;;;;-2.62;71.27;92720.31;5028469;28;20022;-57
2021/01/28 03:02:02;;;;;;;11.75;7.05;;;;;;;-2.65;70.94;92713.16;5028472;28;20018;-59
2021/01/28 03:04:27;;;;;;;12.18;6.78;;;;;;;-2.60;70.96;92723.28;5027199;28;20571;-59
2021/01/28 03:06:52;;;;;;;17.60;7.40;;;;;;;-2.71;71.26;92718.56;5028307;28;20017;-59
2021/01/28 03:09:18;;;;;;;13.07;7.72;;;;;;;-2.81;70.66;92705.69;5028329;28;20033;-59
2021/01/28 03:11:43;;;;;;;18.70;9.45;;;;;;;-2.77;71.21;92728.56;5028181;28;20029;-58
2021/01/28 03:14:09;;;;;;;13.80;7.55;;;;;;;-2.85;71.24;92708.63;5028305;28;20018;-60
2021/01/28 03:16:34;;;;;;;10.38;7.00;;;;;;;-2.74;71.02;92721.47;5028143;28;20030;-60
2021/01/28 03:18:59;;;;;;;15.02;7.78;;;;;;;-2.72;71.14;92710.91;5028208;28;20026;-60
2021/01/28 03:21:25;;;;;;;12.90;8.88;;;;;;;-2.77;71.57;92709.66;5031456;28;20022;-60
2021/01/28 03:23:50;;;;;;;14.60;7.68;;;;;;;-2.70;70.85;92720.03;5031584;28;20017;-60
2021/01/28 03:26:16;;;;;;;10.65;6.80;;;;;;;-2.54;71.18;92721.34;5031587;28;20036;-60
2021/01/28 03:28:41;;;;;;;11.43;7.07;;;;;;;-2.70;70.65;92719.28;5031485;28;20021;-61
2021/01/28 03:31:06;;;;;;;13.88;8.90;;;;;;;-2.60;70.15;92724.00;5031456;28;20028;-60
2021/01/28 03:33:32;;;;;;;12.75;7.93;;;;;;;-2.69;70.89;92720.75;5031572;28;20026;-59
2021/01/28 03:35:58;;;;;;;13.30;7.22;;;;;;;-2.75;71.12;92709.19;5031486;28;20393;-59
2021/01/28 03:38:23;;;;;;;13.70;7.00;;;;;;;-2.65;70.54;92718.56;5031508;28;20511;-59
2021/01/28 03:40:49;;;;;;;14.35;8.05;;;;;;;-2.64;70.65;92720.06;5031209;28;20057;-58
2021/01/28 03:43:14;;;;;;;13.57;7.57;;;;;;;-2.68;70.31;92716.81;5031307;28;20025;-59
2021/01/28 03:45:40;;;;;;;16.35;6.88;;;;;;;-2.70;70.39;92714.63;5031359;28;20477;-59
2021/01/28 03:48:06;;;;;;;13.80;6.93;;;;;;;-2.81;70.82;92700.28;5031293;28;20033;-59
2021/01/28 03:50:34;;;;;;;13.45;8.07;;;;;;;-2.71;70.53;92720.50;5031298;28;20025;-59
2021/01/28 03:53:01;;;;;;;20.05;8.25;;;;;;;-2.79;70.70;92704.00;5031115;28;20100;-59
2021/01/28 03:55:26;;;;;;;9.63;7.22;;;;;;;-2.72;70.66;92716.31;5031236;28;20033;-59
2021/01/28 03:57:52;;;;;;;12.20;6.50;;;;;;;-2.73;70.55;92712.16;5031165;28;20082;-59
2021/01/28 04:00:37;;;;;;;13.10;7.45;;;;;;;-2.64;70.15;92711.97;5031053;28;20025;-54
2021/01/28 04:03:03;;;;;;;14.15;8.13;;;;;;;-2.65;69.58;92705.81;5031194;28;20021;-54
2021/01/28 04:05:29;;;;;;;12.00;7.45;;;;;;;-2.67;70.45;92710.22;5030944;28;20029;-52
2021/01/28 04:07:55;;;;;;;10.85;6.43;;;;;;;-2.81;69.95;92676.72;5031143;28;20018;-52
2021/01/28 04:10:26;;;;;;;12.70;6.57;;;;;;;-2.57;69.52;92709.53;5030972;28;20037;-53
2021/01/28 04:12:52;;;;;;;11.55;6.90;;;;;;;-2.57;69.11;92709.53;5030910;28;20029;-50
2021/01/28 04:15:17;;;;;;;11.40;6.75;;;;;;;-2.80;69.08;92691.72;5031076;28;20054;-49
2021/01/28 04:17:43;;;;;;;11.43;6.75;;;;;;;-2.66;69.41;92714.38;5030810;28;20026;-48
2021/01/28 04:20:10;;;;;;;12.25;7.85;;;;;;;-2.79;68.87;92700.53;5030856;28;20022;-51
2021/01/28 04:22:36;;;;;;;12.02;7.10;;;;;;;-2.66;68.70;92712.44;5030800;28;20498;-52
2021/01/28 04:25:03;;;;;;;36.70;22.60;;;;;;;-2.55;68.08;92728.72;5030790;28;20030;-50
2021/01/28 04:27:29;;;;;;;38.60;19.77;;;;;;;-2.74;68.38;92719.50;5030919;28;20026;-52
2021/01/28 04:29:55;;;;;;;35.10;18.63;;;;;;;-2.88;69.42;92725.06;5030761;28;20532;-52
2021/01/28 04:32:20;;;;;;;20.63;9.70;;;;;;;-2.76;69.43;92715.81;5029875;28;20048;-52
2021/01/28 04:34:46;;;;;;;13.35;8.10;;;;;;;-2.68;68.62;92722.22;5030696;28;20564;-49
2021/01/28 04:37:11;;;;;;;12.52;7.55;;;;;;;-2.88;69.63;92723.06;5030503;28;20024;-52
2021/01/28 04:39:41;;;;;;;16.42;7.97;;;;;;;-2.93;69.78;92720.34;5030366;28;20041;-50
2021/01/28 04:42:10;;;;;;;12.07;8.02;;;;;;;-3.14;70.10;92696.13;5030557;28;20376;-47
2021/01/28 04:44:36;;;;;;;13.40;7.40;;;;;;;-2.89;69.95;92723.56;5029253;28;20026;-52
2021/01/28 04:47:01;;;;;;;11.82;6.68;;;;;;;-2.98;69.78;92726.44;5030450;28;20022;-57
2021/01/28 04:49:28;;;;;;;15.02;8.15;;;;;;;-2.94;70.12;92725.00;5030392;28;20397;-56
2021/01/28 04:52:03;;;;;;;9.63;6.28;;;;;;;-2.82;69.47;92731.22;5029137;28;20018;-60
2021/01/28 04:54:32;;;;;;;20.42;8.95;;;;;;;-2.84;69.30;92734.41;5030378;28;20017;-60
2021/01/28 04:56:57;;;;;;;;;;;;;;;-2.86;69.61;92734.16;5029564;28;20028;-60
2021/01/28 04:59:32;;;;;;;14.40;7.20;;;;;;;-2.92;69.43;92735.34;5030220;27;19913;-60
2021/01/28 05:01:59;;;;;;;13.02;7.72;;;;;;;-2.85;69.33;92740.28;5027654;28;20048;-60
2021/01/28 05:04:31;;;;;;;18.75;9.68;;;;;;;-2.80;69.91;92743.03;5033107;28;20029;-60
2021/01/28 05:06:56;;;;;;;23.40;11.43;;;;;;;-2.75;69.40;92744.31;5036623;28;20517;-59
2021/01/28 05:09:22;;;;;;;18.33;10.25;;;;;;;-2.75;68.67;92750.44;5028323;28;20025;-57
2021/01/28 05:11:53;;;;;;;25.40;11.65;;;;;;;-2.73;68.83;92744.56;5034333;28;20402;-59
2021/01/28 05:14:22;;;;;;;22.83;12.98;;;;;;;-2.68;68.82;92754.66;5028456;28;20025;-59
2021/01/28 05:16:51;;;;;;;23.30;12.40;;;;;;;-2.73;67.94;92741.88;5027181;28;20029;-59
2021/01/28 05:19:43;;;;;;;20.75;10.18;;;;;;;-2.68;67.43;92751.94;5028406;28;20026;-58
2021/01/28 05:22:37;;;;;;;19.45;9.48;;;;;;;-2.94;68.65;92759.34;5045332;28;20029;-60
2021/01/28 05:25:31;;;;;;;16.92;8.30;;;;;;;-2.86;67.83;92763.13;5047033;28;20028;-60
2021/01/28 05:27:57;;;;;;;12.88;7.28;;;;;;;-2.89;67.76;92761.38;5048356;28;20097;-59
2021/01/28 05:30:38;;;;;;;21.58;9.80;;;;;;;-3.08;68.09;92759.03;5047086;28;20024;-59
2021/01/28 05:33:21;;;;;;;23.83;11.52;;;;;;;-3.06;68.61;92761.25;5047988;28;20085;-60
2021/01/28 05:35:46;;;;;;;14.40;7.25;;;;;;;-3.01;67.99;92762.50;5026391;28;20407;-60
2021/01/28 05:38:26;;;;;;;16.50;7.32;;;;;;;-2.94;68.00;92760.09;5028146;28;20032;-60
2021/01/28 05:40:59;;;;;;;12.27;7.78;;;;;;;-3.28;68.57;92747.56;5024562;28;20521;-60
2021/01/28 05:43:36;;;;;;;16.63;8.40;;;;;;;-3.24;69.27;92775.81;5037440;28;20121;-60
2021/01/28 05:46:24;;;;;;;12.60;7.65;;;;;;;-3.29;68.58;92765.69;5047280;28;20081;-60
2021/01/28 05:49:04;;;;;;;;;;;;;;;-3.19;69.08;92780.53;5045269;28;20039;-60
2021/01/28 05:51:41;;;;;;;11.90;6.72;;;;;;;-3.21;68.55;92772.16;5036527;28;19932;-59
2021/01/28 05:54:16;;;;;;;15.63;8.25;;;;;;;-3.15;69.08;92781.06;5026915;28;20038;-60
2021/01/28 05:57:10;;;;;;;15.15;7.57;;;;;;;-3.02;68.54;92786.06;5027590;28;20030;-58
2021/01/28 06:00:03;;;;;;;39.15;19.77;;;;;;;-3.24;68.25;92780.47;5031998;28;20036;-58
2021/01/28 06:02:37;;;;;;;24.83;15.32;;;;;;;-3.16;69.15;92798.47;5044216;28;20032;-59
2021/01/28 06:05:41;;;;;;;17.80;9.82;;;;;;;-3.24;69.53;92799.34;5045405;28;20047;-59
2021/01/28 06:08:15;;;;;;;11.75;7.22;;;;;;;-3.14;68.76;92803.41;5021854;28;20472;-59
2021/01/28 06:11:15;;;;;;;12.68;7.45;;;;;;;-3.00;68.75;92805.22;5026707;28;20026;-57
2021/01/28 06:13:58;;;;;;;26.48;10.65;;;;;;;-3.03;68.84;92808.88;5026008;28;20070;-49
2021/01/28 06:16:28;;;;;;;29.95;14.52;;;;;;;-2.83;68.21;92813.47;5043658;28;20041;-56
2021/01/28 06:18:56;;;;;;;19.60;9.85;;;;;;;-2.83;67.71;92814.22;5044536;28;20495;-59
2021/01/28 06:21:48;;;;;;;18.30;10.00;;;;;;;-2.70;67.86;92803.03;5043470;28;20059;-60
2021/01/28 06:24:35;;;;;;;14.77;8.32;;;;;;;-2.67;66.23;92808.22;5025101;28;20036;-60
2021/01/28 06:27:18;;;;;;;20.15;10.63;;;;;;;-2.98;67.41;92808.19;5026370;28;20100;-59
2021/01/28 06:29:49;;;;;;;23.85;11.40;;;;;;;-2.88;67.93;92806.81;5043659;28;20017;-60
2021/01/28 06:32:44;;;;;;;27.40;12.88;;;;;;;-2.85;67.18;92800.47;5045726;28;20033;-60
2021/01/28 06:35:32;;;;;;;16.17;10.43;;;;;;;-2.84;67.38;92807.34;4991632;28;20046;-60
2021/01/28 06:38:33;;;;;;;18.05;8.55;;;;;;;-2.81;67.29;92806.38;5026511;28;20025;-60
2021/01/28 06:41:05;;;;;;;18.27;9.40;;;;;;;-2.87;67.27;92807.53;5033631;28;20128;-60
2021/01/28 06:43:52;;;;;;;10.65;6.72;;;;;;;-2.75;66.85;92806.44;5027072;28;20025;-63
2021/01/28 06:46:50;;;;;;;13.40;6.93;;;;;;;-2.76;66.78;92807.66;5027268;28;20036;-62
2021/01/28 06:49:40;;;;;;;17.80;7.45;;;;;;;-2.55;66.52;92820.59;5025946;28;20024;-60
2021/01/28 06:52:06;;;;;;;24.73;11.82;;;;;;;-2.44;66.94;92817.97;5027520;28;20118;-60
2021/01/28 06:54:54;;;;;;;24.08;11.40;;;;;;;-2.14;66.13;92823.81;5026345;28;20489;-59
2021/01/28 06:57:23;;;;;;;14.68;8.50;;;;;;;-1.89;65.85;92819.53;5026101;28;20118;-59
2021/01/28 07:00:15;;;;;;;;;;;;;;;-1.74;64.81;92830.94;5027414;28;20121;-61
2021/01/28 07:02:58;;;;;;;9.48;5.68;;;;;;;-1.34;63.98;92829.88;5049736;28;20391;-60
2021/01/28 07:05:32;;;;;;;9.98;6.40;;;;;;;-1.24;62.69;92831.13;5033161;28;20036;-60
2021/01/28 07:08:12;;;;;;;11.60;7.28;;;;;;;-1.01;63.26;92829.94;5028877;28;20619;-61
2021/01/28 07:10:42;;;;;;;12.00;6.70;;;;;;;-0.71;61.95;92830.97;5027051;28;20033;-60
2021/01/28 07:13:09;;;;;;;11.55;5.63;;;;;;;-0.43;60.87;92831.75;5027258;28;20030;-61
2021/01/28 07:15:35;;;;;;;15.75;7.68;;;;;;;0.26;59.04;92829.94;5037012;28;20029;-61
2021/01/28 07:18:14;;;;;;;15.45;7.57;;;;;;;1.26;57.45;92826.78;5046791;28;20028;-62
2021/01/28 07:20:56;;;;;;;8.90;5.78;;;;;;;1.57;55.36;92828.31;5045970;28;20093;-62
2021/01/28 07:23:26;;;;;;;13.20;8.32;;;;;;;1.19;55.67;92830.06;5044343;28;20125;-61
2021/01/28 07:26:13;;;;;;;9.82;6.43;;;;;;;1.23;55.77;92833.97;5046510;28;20029;-60
2021/01/28 07:28:40;;;;;;;12.52;6.95;;;;;;;0.84;56.20;92838.13;5044956;28;20040;-61
2021/01/28 07:31:08;;;;;;;9.60;6.68;;;;;;;0.59;56.89;92834.50;5046876;28;20044;-62
2021/01/28 07:33:40;;;;;;;12.30;6.82;;;;;;;0.45;58.77;92841.75;5046425;28;20035;-63
2021/01/28 07:36:11;;;;;;;12.48;6.47;;;;;;;0.44;58.17;92842.22;5041625;28;20026;-61
2021/01/28 07:38:45;;;;;;;12.40;6.95;;;;;;;0.48;58.20;92845.41;5026715;28;20433;-61
2021/01/28 07:41:15;;;;;;;11.57;6.85;;;;;;;0.36;59.19;92844.72;5043097;28;20425;-63
2021/01/28 07:43:42;;;;;;;;;;;;;;;0.44;58.94;92850.38;5027042;28;20025;-62
2021/01/28 07:46:45;;;;;;;11.02;6.38;;;;;;;0.65;59.03;92846.84;5046432;28;19912;-61
2021/01/28 07:49:15;;;;;;;12.50;6.82;;;;;;;0.83;57.94;92844.78;4984763;28;20057;-60
2021/01/28 07:51:51;;;;;;;15.75;6.15;;;;;;;0.99;57.29;92844.00;4984936;28;20456;-63
2021/01/28 07:54:22;;;;;;;12.88;7.30;;;;;;;2.01;55.95;92847.03;5008270;28;20038;-65
2021/01/28 07:56:58;;;;;;;11.88;7.60;;;;;;;3.42;52.13;92851.88;5026428;28;20044;-62
2021/01/28 07:59:34;;;;;;;12.18;6.53;;;;;;;4.42;48.90;92854.53;5026228;28;20024;-60
2021/01/28 08:02:23;;;;;;;8.00;6.15;;;;;;;5.31;45.85;92833.69;5026305;28;20050;-60
2021/01/28 08:04:51;;;;;;;13.30;8.23;;;;;;;5.65;45.08;92844.66;5041875;28;20028;-65
2021/01/28 08:07:42;;;;;;;9.93;6.65;;;;;;;7.17;42.19;92837.13;5027959;28;20022;-65
2021/01/28 08:10:26;;;;;;;9.25;5.93;;;;;;;8.32;39.61;92839.69;5032186;28;20113;-66
2021/01/28 08:12:55;;;;;;;9.20;6.35;;;;;;;8.54;37.70;92844.50;5029710;28;20113;-66
2021/01/28 08:15:32;;;;;;;10.82;6.93;;;;;;;8.98;37.95;92845.00;5045055;28;20021;-65
2021/01/28 08:18:20;;;;;;;15.50;8.65;;;;;;;9.66;35.75;92840.03;5049581;28;20036;-65
2021/01/28 08:20:47;;;;;;;10.95;7.57;;;;;;;10.06;33.99;92831.78;5039447;28;20421;-64
2021/01/28 08:23:18;;;;;;;11.38;6.70;;;;;;;9.78;35.47;92846.63;5028147;28;20021;-64
2021/01/28 08:25:59;;;;;;;11.43;7.78;;;;;;;9.81;34.14;92839.25;5028335;28;20078;-64
2021/01/28 08:28:30;;;;;;;10.07;7.50;;;;;;;9.75;34.32;92835.97;5029354;28;20078;-64
2021/01/28 08:31:15;;;;;;;10.55;7.82;;;;;;;9.34;35.53;92839.22;5029386;28;20505;-67
2021/01/28 08:33:44;;;;;;;11.02;7.35;;;;;;;9.95;34.92;92834.97;5028828;28;20029;-67
2021/01/28 08:36:21;;;;;;;10.48;7.80;;;;;;;10.10;33.48;92823.09;5033816;28;20049;-66
2021/01/28 08:38:47;;;;;;;10.30;7.03;;;;;;;10.14;34.66;92837.25;5028994;28;20514;-67
2021/01/28 08:41:14;;;;;;;12.00;7.35;;;;;;;10.24;33.35;92847.16;5029132;28;20067;-69
2021/01/28 08:43:39;;;;;;;9.95;6.53;;;;;;;10.50;33.44;92849.34;5029127;28;20045;-68
2021/01/28 08:46:09;;;;;;;8.30;5.40;;;;;;;10.52;32.80;92849.53;5029458;28;20103;-69
2021/01/28 08:48:35;;;;;;;9.75;6.63;;;;;;;10.90;32.21;92846.47;5029021;28;20030;-68
2021/01/28 08:51:15;;;;;;;13.38;7.95;;;;;;;10.40;32.82;92847.78;5029062;28;20030;-66
2021/01/28 08:53:45;;;;;;;12.63;7.90;;;;;;;8.90;34.70;92847.06;5029235;28;20064;-67
2021/01/28 08:56:20;;;;;;;11.20;7.03;;;;;;;8.30;36.52;92864.28;5029175;28;20033;-66
2021/01/28 08:58:46;;;;;;;12.55;7.35;;;;;;;7.66;37.25;92869.94;5037191;28;20029;-67
2021/01/28 09:01:13;;;;;;;11.10;7.10;;;;;;;6.93;38.73;92869.75;5045978;28;20028;-67
2021/01/28 09:03:44;;;;;;;11.70;7.90;;;;;;;6.45;41.58;92879.44;5049105;28;20024;-68
2021/01/28 09:06:10;;;;;;;34.78;14.55;;;;;;;5.99;41.62;92875.53;5048694;28;20036;-69
2021/01/28 09:08:40;;;;;;;13.50;8.20;;;;;;;5.64;42.44;92867.81;5047522;28;20078;-66
2021/01/28 09:11:11;;;;;;;13.13;7.43;;;;;;;4.74;44.34;92884.56;5048490;28;20054;-67
2021/01/28 09:13:37;;;;;;;13.50;7.18;;;;;;;4.38;45.63;92880.69;5048584;28;20115;-66
2021/01/28 09:16:18;;;;;;;16.55;10.40;;;;;;;4.65;46.47;92870.53;5048628;28;20103;-67
2021/01/28 09:18:51;;;;;;;14.57;8.23;;;;;;;4.94;46.06;92875.72;5048359;28;20047;-67
2021/01/28 09:21:20;;;;;;;13.68;6.75;;;;;;;4.77;45.19;92880.75;5048771;28;20082;-65
2021/01/28 09:23:54;;;;;;;;;;;;;;;3.96;47.84;92878.91;5047513;28;20036;-66
2021/01/28 09:26:30;;;;;;;16.15;8.30;;;;;;;3.37;49.51;92860.88;5039572;28;19917;-66
2021/01/28 09:29:10;;;;;;;13.52;7.68;;;;;;;3.52;49.85;92872.09;5048255;28;20021;-66
2021/01/28 09:31:35;;;;;;;14.20;8.25;;;;;;;3.61;50.89;92875.19;5047048;28;20421;-66
2021/01/28 09:34:23;;;;;;;10.98;7.20;;;;;;;3.74;49.83;92871.78;5047093;28;20033;-65
2021/01/28 09:36:55;;;;;;;13.00;8.18;;;;;;;3.82;50.75;92864.44;5037293;27;20049;-65
2021/01/28 09:39:30;;;;;;;12.15;6.38;;;;;;;4.64;48.09;92864.34;5026737;28;20062;-66
2021/01/28 09:41:55;;;;;;;11.38;7.13;;;;;;;5.60;45.76;92862.69;5028601;28;20693;-67
2021/01/28 09:44:39;;;;;;;11.13;6.93;;;;;;;5.72;44.70;92852.94;5028273;28;20021;-65
2021/01/28 09:47:19;;;;;;;10.88;5.78;;;;;;;6.22;43.23;92853.81;5028426;28;20113;-66
2021/01/28 09:49:46;;;;;;;9.48;6.22;;;;;;;6.39;43.47;92857.63;5028100;28;20033;-64
2021/01/28 09:52:17;;;;;;;11.07;6.65;;;;;;;7.02;42.92;92850.78;5037582;28;20029;-66
2021/01/28 09:54:43;;;;;;;7.63;5.82;;;;;;;6.95;41.17;92853.47;5048048;28;20017;-65
2021/01/28 09:57:08;;;;;;;10.95;6.13;;;;;;;6.19;42.74;92841.94;5048025;28;20020;-67
2021/01/28 09:59:33;;;;;;;10.10;6.00;;;;;;;5.11;45.25;92859.00;5044866;28;20115;-67
2021/01/28 10:01:59;;;;;;;7.80;5.10;;;;;;;5.44;44.37;92854.81;5027839;28;20022;-67
2021/01/28 10:04:24;;;;;;;9.10;6.28;;;;;;;5.14;45.07;92855.19;5028132;28;20021;-66
2021/01/28 10:06:50;;;;;;;8.43;5.25;;;;;;;5.21;44.67;92860.03;5027765;28;20025;-68
2021/01/28 10:09:15;;;;;;;6.82;4.95;;;;;;;5.19;45.15;92835.94;5028102;28;20033;-67
2021/01/28 10:11:41;;;;;;;8.35;5.63;;;;;;;5.84;43.82;92851.47;5034810;28;20115;-67
2021/01/28 10:14:06;;;;;;;7.20;4.40;;;;;;;5.54;42.98;92850.38;5041297;28;20021;-66
2021/01/28 10:16:32;;;;;;;6.95;4.90;;;;;;;5.23;44.55;92843.81;5030171;28;20516;-65
2021/01/28 10:18:58;;;;;;;23.55;13.50;;;;;;;5.12;44.48;92855.72;5027897;28;20082;-60
2021/01/28 10:21:23;;;;;;;6.47;4.57;;;;;;;4.88;44.73;92858.66;5027688;28;20022;-61
2021/01/28 10:23:49;;;;;;;7.13;4.95;;;;;;;5.05;44.43;92855.59;5035180;28;20569;-59
2021/01/28 10:26:14;;;;;;;6.75;5.28;;;;;;;5.16;44.12;92836.97;5036624;28;20447;-65
2021/01/28 10:28:40;;;;;;;8.90;5.90;;;;;;;5.69;43.63;92840.34;5046944;28;20016;-63
2021/01/28 10:31:06;;;;;;;8.05;5.57;;;;;;;6.23;43.08;92834.13;5046673;28;20029;-63
2021/01/28 10:33:33;;;;;;;18.52;9.75;;;;;;;5.69;42.48;92840.34;5046680;28;20029;-60
2021/01/28 10:35:59;;;;;;;10.25;7.18;;;;;;;5.44;43.99;92839.13;5041487;28;20030;-65
2021/01/28 10:38:24;;;;;;;13.52;7.13;;;;;;;6.47;42.09;92836.50;5037573;28;20021;-65
2021/01/28 10:40:54;;;;;;;10.90;5.43;;;;;;;6.55;41.08;92823.59;5046884;28;20083;-64
2021/01/28 10:43:19;;;;;;;9.30;5.40;;;;;;;6.99;40.67;92827.16;5047074;28;20406;-64
2021/01/28 10:45:45;;;;;;;13.80;7.55;;;;;;;6.58;40.76;92840.97;5046931;28;20040;-63
2021/01/28 10:48:11;;;;;;;10.75;6.72;;;;;;;6.99;40.59;92851.13;5046905;28;20029;-62
2021/01/28 10:50:37;;;;;;;10.63;5.47;;;;;;;8.74;36.94;92837.34;5046794;28;20466;-59
2021/01/28 10:53:03;;;;;;;12.35;6.85;;;;;;;9.49;35.25;92841.94;5047253;28;20033;-61
2021/01/28 10:55:32;;;;;;;7.53;5.20;;;;;;;10.65;32.54;92832.66;5046562;28;20025;-61
2021/01/28 10:57:57;;;;;;;8.35;4.55;;;;;;;10.68;32.36;92841.16;5046790;28;20055;-62
2021/01/28 11:00:24;;;;;;;6.70;3.72;;;;;;;11.18;31.28;92834.25;5046687;28;20783;-60
2021/01/28 11:02:49;;;;;;;5.25;3.88;;;;;;;11.11;31.13;92835.06;5038046;28;20026;-60
2021/01/28 11:05:19;;;;;;;4.88;3.45;;;;;;;11.59;29.99;92841.72;5037446;28;20025;-60
2021/01/28 11:07:45;;;;;;;6.45;4.18;;;;;;;11.73;29.49;92831.84;5046655;28;20032;-60
2021/01/28 11:10:11;;;;;;;6.88;4.30;;;;;;;12.06;29.42;92818.53;5046417;28;20021;-62
2021/01/28 11:12:37;;;;;;;7.88;3.60;;;;;;;12.40;28.97;92826.72;5046136;28;20021;-61
2021/01/28 11:15:04;;;;;;;6.65;4.65;;;;;;;11.97;29.13;92828.22;5040225;28;20025;-61
2021/01/28 11:17:29;;;;;;;6.85;4.80;;;;;;;12.18;29.29;92834.03;5026734;28;20040;-63
2021/01/28 11:19:55;;;;;;;8.15;5.13;;;;;;;13.11;28.07;92830.06;5026331;28;20021;-61
2021/01/28 11:22:20;;;;;;;7.38;4.57;;;;;;;12.31;28.83;92827.41;5026827;28;20029;-60
2021/01/28 11:24:46;;;;;;;5.15;3.78;;;;;;;12.58;28.41;92821.84;5025349;28;20053;-61
2021/01/28 11:27:11;;;;;;;3.45;2.85;;;;;;;12.88;27.36;92829.69;5027069;28;20914;-61
2021/01/28 11:29:37;;;;;;;3.90;3.00;;;;;;;11.78;28.08;92811.47;5031207;28;20521;-63
2021/01/28 11:32:02;;;;;;;4.80;3.38;;;;;;;12.09;28.42;92826.41;5029295;28;20092;-60
2021/01/28 11:34:28;;;;;;;4.00;2.88;;;;;;;12.26;28.04;92816.59;5046319;28;20041;-59
2021/01/28 11:36:54;;;;;;;3.47;3.05;;;;;;;12.12;28.54;92822.50;5046103;28;20489;-61
2021/01/28 11:39:19;;;;;;;4.07;3.10;;;;;;;12.33;27.57;92810.19;5046319;28;20052;-60
2021/01/28 11:41:45;;;;;;;5.47;3.75;;;;;;;12.01;27.91;92817.47;5048666;28;20013;-61
2021/01/28 11:44:10;;;;;;;5.78;3.50;;;;;;;10.81;29.54;92813.22;5050631;27;20033;-65
2021/01/28 11:46:36;;;;;;;7.10;3.75;;;;;;;10.90;30.05;92812.59;5049867;28;20433;-64
2021/01/28 11:49:01;;;;;;;7.22;4.22;;;;;;;11.34;29.41;92811.44;5046557;28;20466;-65